Time;durP1;ratioP1;P1;durP2;ratioP2;P2;SDS_P1;SDS_P2;PMS_P1;PMS_P2;Temp;Humidity;BMP_temperature;BMP_pressure;BME280_temperature;BME280_humidity;BME280_pressure;Samples;Min_cycle;Max_cycle;Signal;HPM_P1;HPM_P2
2022/07/30 00:00:29;;;;;;;11.00;2.67;;;;;;;17.70;100.00;101287.95;1284550;111;21790;-82
2022/07/30 00:03:01;;;;;;;5.00;1.70;;;;;;;17.66;100.00;101286.92;1284718;111;21213;-81
2022/07/30 00:05:27;;;;;;;8.48;1.90;;;;;;;17.62;100.00;101281.80;1284599;111;21475;-82
2022/07/30 00:28:52;;;;;;;5.05;2.00;;;;;;;16.84;100.00;101273.30;1240791;115;21763;-81
2022/07/30 00:31:24;;;;;;;6.12;2.47;;;;;;;16.72;100.00;101277.72;1250002;112;21211;-81
2022/07/30 00:33:50;;;;;;;4.40;2.00;;;;;;;16.66;100.00;101276.69;1277473;105;21629;-81
2022/07/30 00:36:40;;;;;;;;;;;;;;;;;;;;;
2022/07/30 00:39:02;;;;;;;5.70;2.12;;;;;;;16.45;100.00;101267.30;1368409;104;21192;-82
2022/07/30 00:41:32;;;;;;;3.75;1.82;;;;;;;16.46;100.00;101276.27;1373971;104;21167;-82
2022/07/30 00:44:05;;;;;;;11.70;2.52;;;;;;;16.28;100.00;101247.83;1382446;103;21537;-82
2022/07/30 00:46:33;;;;;;;9.30;2.20;;;;;;;16.42;100.00;101276.59;1322219;107;21714;-81
2022/07/30 00:49:00;;;;;;;7.95;2.35;;;;;;;16.39;100.00;101266.27;1314018;108;21264;-82
2022/07/30 00:51:26;;;;;;;7.25;1.75;;;;;;;16.31;100.00;101269.02;1311013;108;21095;-82
2022/07/30 00:53:52;;;;;;;8.50;2.20;;;;;;;16.31;100.00;101269.02;1305396;109;21198;-81
2022/07/30 00:56:21;;;;;;;5.20;2.47;;;;;;;16.29;100.00;101272.56;1333274;106;21152;-82
2022/07/30 00:58:51;;;;;;;4.87;1.92;;;;;;;16.27;100.00;101264.70;1336890;106;21161;-82
2022/07/30 01:01:54;;;;;;;;;;;;;;;;;;;;;
2022/07/30 01:04:01;;;;;;;8.33;2.12;;;;;;;16.23;100.00;101265.53;1377723;103;21209;-82
2022/07/30 01:06:30;;;;;;;8.35;2.10;;;;;;;16.17;100.00;101273.45;1384568;102;21157;-82
2022/07/30 01:09:12;;;;;;;9.45;2.58;;;;;;;16.13;100.00;101261.78;1317136;106;21114;-82
2022/07/30 01:11:41;;;;;;;5.53;2.50;;;;;;;16.13;100.00;101272.66;1335801;107;21183;-82
2022/07/30 01:14:08;;;;;;;6.47;2.70;;;;;;;16.10;100.00;101261.54;1316740;107;21425;-83
2022/07/30 01:16:43;;;;;;;4.40;2.22;;;;;;;16.08;100.00;101265.88;1314457;109;21696;-82
2022/07/30 01:22:28;;;;;;;10.15;3.00;;;;;;;16.09;100.00;101262.09;1305529;109;21203;-82
2022/07/30 01:25:25;;;;;;;10.70;3.20;;;;;;;16.11;100.00;101263.96;1319463;108;21210;-82
2022/07/30 01:28:02;;;;;;;10.25;2.58;;;;;;;16.13;100.00;101260.97;1323846;108;21285;-82
2022/07/30 01:30:36;;;;;;;7.80;2.65;;;;;;;16.05;100.00;101241.16;1330795;106;21116;-81
2022/07/30 01:33:07;;;;;;;8.55;2.80;;;;;;;16.10;100.00;101251.47;1331141;107;21143;-82
2022/07/30 01:35:39;;;;;;;8.88;2.52;;;;;;;16.23;100.00;101258.18;1330850;106;21149;-82
2022/07/30 01:38:11;;;;;;;6.72;2.70;;;;;;;16.23;100.00;101258.18;1313187;108;21156;-83
2022/07/30 01:40:38;;;;;;;8.80;3.00;;;;;;;16.27;100.00;101259.81;1300426;108;21164;-82
2022/07/30 01:43:09;;;;;;;11.55;2.70;;;;;;;16.30;100.00;101253.81;1300402;109;21070;-83
2022/07/30 01:45:39;;;;;;;10.10;3.20;;;;;;;16.20;100.00;101237.55;1300319;109;21172;-82
2022/07/30 01:48:08;;;;;;;9.08;2.85;;;;;;;16.20;100.00;101237.55;1265469;112;21587;-83
2022/07/30 01:50:36;;;;;;;6.55;2.60;;;;;;;16.28;100.00;101256.80;1257926;112;21165;-82
2022/07/30 01:53:02;;;;;;;7.03;3.10;;;;;;;16.26;100.00;101256.81;1255369;112;21354;-83
2022/07/30 01:55:35;;;;;;;7.53;2.80;;;;;;;16.23;100.00;101250.02;1255075;112;21276;-82
2022/07/30 01:58:05;;;;;;;6.12;2.60;;;;;;;16.25;100.00;101251.92;1248806;113;21131;-82
2022/07/30 02:00:35;;;;;;;9.83;2.80;;;;;;;16.15;100.00;101235.69;1265250;112;21245;-82
2022/07/30 02:03:01;;;;;;;5.15;2.30;;;;;;;16.15;100.00;101235.69;1265714;112;21525;-83
2022/07/30 02:05:31;;;;;;;5.45;2.62;;;;;;;16.16;100.00;101240.02;1279149;109;21289;-82
2022/07/30 02:08:19;;;;;;;6.70;2.45;;;;;;;16.16;100.00;101240.02;1330403;104;21126;-82
2022/07/30 02:11:03;;;;;;;7.75;3.22;;;;;;;16.27;100.00;101257.91;1368515;104;21168;-83
2022/07/30 02:13:29;;;;;;;;;;;;;;;16.23;100.00;101260.91;1370909;102;21574;-82
2022/07/30 02:16:10;;;;;;;12.63;2.47;;;;;;;16.18;100.00;101262.31;1368680;103;20218;-83
2022/07/30 02:18:44;;;;;;;10.98;2.22;;;;;;;16.11;100.00;101263.96;1350355;105;21243;-83
2022/07/30 02:21:11;;;;;;;9.93;2.55;;;;;;;16.11;100.00;101263.96;1363389;105;21224;-83
2022/07/30 02:23:42;;;;;;;6.22;2.98;;;;;;;16.07;100.00;101263.45;1363548;105;21119;-83
2022/07/30 02:26:17;;;;;;;10.00;2.30;;;;;;;15.95;100.00;101249.39;1362137;105;21164;-82
2022/07/30 02:28:47;;;;;;;16.90;3.27;;;;;;;15.95;100.00;101260.27;1365254;105;21435;-84
2022/07/30 02:31:16;;;;;;;14.35;3.12;;;;;;;15.93;100.00;101266.52;1365433;105;21239;-83
2022/07/30 02:33:45;;;;;;;4.58;2.12;;;;;;;15.94;100.00;101269.48;1365536;105;21312;-83
2022/07/30 02:36:13;;;;;;;10.53;2.95;;;;;;;15.92;100.00;101268.42;1364221;105;22443;-83
2022/07/30 02:38:40;;;;;;;11.55;2.87;;;;;;;15.92;100.00;101273.05;1349172;105;21188;-83
2022/07/30 02:41:09;;;;;;;8.80;3.10;;;;;;;15.89;100.00;101273.06;1364223;105;21236;-83
2022/07/30 02:43:36;;;;;;;11.55;3.37;;;;;;;15.90;100.00;101278.20;1364364;105;21967;-83
2022/07/30 02:46:03;;;;;;;10.98;2.83;;;;;;;15.95;100.00;101283.37;1387445;103;21582;-84
2022/07/30 02:48:30;;;;;;;5.58;2.77;;;;;;;16.01;100.00;101276.27;1389699;103;21125;-83
2022/07/30 02:50:58;;;;;;;5.58;2.55;;;;;;;16.09;100.00;101281.67;1389601;103;21137;-83
2022/07/30 02:53:26;;;;;;;7.05;2.87;;;;;;;16.18;100.00;101284.59;1389631;103;21629;-84
2022/07/30 02:55:55;;;;;;;6.67;2.70;;;;;;;16.27;100.00;101283.74;1465889;97;21919;-84
2022/07/30 02:58:24;;;;;;;6.95;2.52;;;;;;;16.40;100.00;101290.45;1470639;97;21579;-84
2022/07/30 03:00:53;;;;;;;7.62;2.42;;;;;;;16.49;100.00;101278.43;1470271;96;21108;-84
2022/07/30 03:03:20;;;;;;;13.28;3.12;;;;;;;16.59;100.00;101285.18;1470610;97;21108;-84
2022/07/30 03:05:51;;;;;;;10.63;2.80;;;;;;;16.71;100.00;101280.19;1470564;97;21184;-84
2022/07/30 03:08:17;;;;;;;6.58;2.70;;;;;;;16.81;100.00;101277.95;1427483;99;21388;-85
2022/07/30 03:10:46;;;;;;;7.05;2.75;;;;;;;16.91;100.00;101280.60;1427717;100;21038;-84
2022/07/30 03:13:14;;;;;;;7.90;2.50;;;;;;;16.98;100.00;101284.35;1428005;100;21110;-84
2022/07/30 03:15:49;;;;;;;7.67;2.65;;;;;;;17.11;100.00;101274.69;1468193;96;21048;-85
2022/07/30 03:18:17;;;;;;;6.45;2.52;;;;;;;17.25;100.00;101277.81;1494219;96;21145;-84
2022/07/30 03:20:48;;;;;;;9.33;2.45;;;;;;;17.39;100.00;101278.52;1494444;96;21963;-84
2022/07/30 03:23:18;;;;;;;11.55;2.52;;;;;;;17.54;100.00;101282.98;1514543;92;21678;-85
2022/07/30 03:25:54;;;;;;;6.45;2.65;;;;;;;17.70;100.00;101280.33;1527096;92;21069;-84
2022/07/30 03:28:21;;;;;;;6.60;2.80;;;;;;;17.99;100.00;101281.64;1546375;92;21553;-84
2022/07/30 03:33:20;;;;;;;8.23;2.50;;;;;;;18.58;100.00;101288.44;1520971;94;21083;-85
2022/07/30 03:35:48;;;;;;;6.92;2.33;;;;;;;18.91;100.00;101284.39;1521509;92;21018;-85
2022/07/30 03:38:20;;;;;;;4.60;2.20;;;;;;;19.57;100.00;101281.02;1521134;94;21094;-85
2022/07/30 03:41:03;;;;;;;;;;;;;;;;;;;;;
2022/07/30 03:43:22;;;;;;;8.63;2.60;;;;;;;20.07;100.00;101278.94;1404240;102;21245;-85
2022/07/30 03:45:57;;;;;;;10.30;2.58;;;;;;;20.19;100.00;101276.48;1404334;102;21152;-85
2022/07/30 03:48:30;;;;;;;7.35;2.47;;;;;;;20.50;100.00;101280.70;1346133;106;21192;-85
2022/07/30 03:51:02;;;;;;;9.10;2.42;;;;;;;21.35;100.00;101278.58;1317281;107;21176;-86
2022/07/30 03:53:31;;;;;;;5.97;2.10;;;;;;;22.41;100.00;101276.08;1318733;108;38937;-86
2022/07/30 03:56:18;;;;;;;5.28;2.00;;;;;;;23.35;100.00;101273.50;1318905;108;21727;-87
2022/07/30 04:01:09;;;;;;;8.58;2.20;;;;;;;25.01;100.00;101278.64;1303997;107;21156;-87
2022/07/30 04:03:38;;;;;;;7.00;2.58;;;;;;;25.80;95.35;101282.06;1297915;110;21775;-87
2022/07/30 04:06:12;;;;;;;6.40;2.20;;;;;;;26.32;87.45;101276.92;1282269;110;21271;-88
2022/07/30 04:08:43;;;;;;;8.03;2.45;;;;;;;26.80;81.59;101278.72;1235721;113;21281;-87
2022/07/30 04:11:14;;;;;;;8.65;2.77;;;;;;;27.09;75.08;101269.77;1234952;114;22342;-87
2022/07/30 04:13:45;;;;;;;12.13;2.70;;;;;;;27.49;71.67;101275.17;1250365;113;21627;-87
2022/07/30 04:16:21;;;;;;;14.47;2.58;;;;;;;27.86;67.65;101267.96;1259485;112;21218;-87
2022/07/30 04:18:55;;;;;;;8.48;2.92;;;;;;;28.09;64.65;101266.69;1246230;113;21374;-87
2022/07/30 04:21:25;;;;;;;5.05;2.65;;;;;;;28.56;62.81;101270.42;1251875;113;21234;-88
2022/07/30 04:24:06;;;;;;;6.00;2.40;;;;;;;28.78;60.53;101260.56;1260416;112;21371;-87
2022/07/30 04:26:35;;;;;;;6.58;2.67;;;;;;;29.29;58.85;101269.41;1260551;111;21263;-87
2022/07/30 04:29:07;;;;;;;5.35;3.00;;;;;;;29.92;56.95;101265.25;1261655;112;21197;-89
2022/07/30 04:31:37;;;;;;;7.55;2.75;;;;;;;30.39;54.36;101264.49;1262303;113;21257;-90
2022/07/30 04:34:06;;;;;;;8.00;2.98;;;;;;;30.47;52.76;101260.59;1231476;116;21647;-87
2022/07/30 04:36:42;;;;;;;7.20;2.80;;;;;;;30.52;51.00;101257.48;1255083;114;21393;-89
2022/07/30 04:39:25;;;;;;;8.23;2.92;;;;;;;30.86;49.98;101256.09;1271281;111;21228;-88
2022/07/30 04:42:03;;;;;;;5.72;2.37;;;;;;;30.63;48.69;101261.19;1266560;113;21068;-87
2022/07/30 04:44:48;;;;;;;;;;;;;;;;;;;;;
2022/07/30 04:47:12;;;;;;;4.47;2.30;;;;;;;31.16;48.13;101265.11;1230513;114;21165;-89
2022/07/30 04:49:53;;;;;;;;;;;;;;;;;;;;;
2022/07/30 05:16:15;;;;;;;;;;;;;;;;;;;;;
2022/07/30 05:22:00;;;;;;;5.10;2.47;;;;;;;33.44;37.03;101276.26;1224487;115;21818;-90
2022/07/30 05:24:26;;;;;;;11.88;2.20;;;;;;;33.22;36.83;101276.88;1226150;115;21250;-92
2022/07/30 05:26:54;;;;;;;6.62;2.12;;;;;;;32.95;35.67;101273.64;1238977;115;21672;-92
2022/07/30 05:29:23;;;;;;;4.90;1.98;;;;;;;32.67;36.67;101270.98;1256190;114;21259;-90
2022/07/30 05:31:52;;;;;;;6.28;2.12;;;;;;;32.77;36.25;101270.23;1237928;112;21199;-90
2022/07/30 05:34:27;;;;;;;3.35;1.95;;;;;;;32.74;35.67;101280.79;1241568;114;21885;-91
2022/07/30 05:37:03;;;;;;;6.47;2.00;;;;;;;32.72;36.06;101272.61;1263906;111;21259;-91
2022/07/30 05:39:42;;;;;;;6.22;2.80;;;;;;;33.00;35.99;101269.89;1276702;112;21178;-88
2022/07/30 05:42:10;;;;;;;33.80;3.80;;;;;;;33.16;35.36;101268.70;1232937;115;21629;-89
2022/07/30 05:44:38;;;;;;;8.20;2.10;;;;;;;33.68;35.29;101267.09;1217181;117;21352;-90
2022/07/30 05:47:04;;;;;;;5.37;2.00;;;;;;;34.13;34.68;101270.17;1262382;110;21251;-90
2022/07/30 05:49:32;;;;;;;3.98;1.42;;;;;;;34.22;34.17;101268.94;1274358;110;21324;-90
2022/07/30 05:52:17;;;;;;;7.30;2.00;;;;;;;34.64;34.32;101261.55;1284886;110;21178;-91
2022/07/30 05:54:51;;;;;;;6.05;2.40;;;;;;;35.24;33.48;101263.14;1256271;112;21253;-87
2022/07/30 05:57:32;;;;;;;;;;;;;;;;;;;;;
2022/07/30 06:17:46;;;;;;;;;;;;;;;;;;;;;
2022/07/30 06:20:08;;;;;;;6.20;1.70;;;;;;;35.49;29.34;101258.69;1267862;112;21198;-88
2022/07/30 06:25:56;;;;;;;2.62;1.50;;;;;;;34.71;28.49;101258.11;1281054;110;21788;-91
2022/07/30 06:31:56;;;;;;;;;;;;;;;;;;;;;
2022/07/30 06:34:15;;;;;;;4.35;1.47;;;;;;;34.50;29.57;101242.80;1266472;112;21154;-91
2022/07/30 06:36:52;;;;;;;;;;;;;;;;;;;;;
2022/07/30 06:39:13;;;;;;;13.70;1.92;;;;;;;35.34;28.78;101229.20;1285920;111;21780;-89
2022/07/30 06:41:42;;;;;;;13.40;2.67;;;;;;;35.32;27.50;101231.02;1270789;111;21224;-88
2022/07/30 06:44:11;;;;;;;7.33;1.80;;;;;;;34.91;28.47;101230.94;1255707;114;21888;-90
2022/07/30 06:46:38;;;;;;;5.03;1.95;;;;;;;35.28;28.23;101234.46;1268419;111;21149;-90
2022/07/30 06:49:07;;;;;;;8.88;2.00;;;;;;;35.73;28.80;101233.02;1253220;113;21204;-88
2022/07/30 06:51:38;;;;;;;16.95;2.00;;;;;;;36.24;27.32;101231.23;1236792;114;21183;-93
2022/07/30 06:54:04;;;;;;;4.25;1.50;;;;;;;35.88;27.59;101233.03;1235509;114;21260;-91
2022/07/30 06:56:33;;;;;;;6.70;1.70;;;;;;;35.36;27.49;101230.39;1236205;114;22318;-87
2022/07/30 06:59:04;;;;;;;6.15;1.70;;;;;;;35.13;28.01;101228.20;1277532;110;21188;-87
2022/07/30 07:01:30;;;;;;;5.90;1.52;;;;;;;35.09;27.84;101232.23;1260845;110;21299;-87
2022/07/30 07:04:04;;;;;;;3.50;1.50;;;;;;;35.41;27.23;101231.31;1257172;114;21245;-86
2022/07/30 07:06:32;;;;;;;7.72;1.80;;;;;;;35.04;27.18;101226.45;1244568;114;21193;-86
2022/07/30 07:09:04;;;;;;;5.03;1.90;;;;;;;35.38;28.11;101220.14;1282951;111;21280;-87
2022/07/30 07:11:33;;;;;;;4.97;1.70;;;;;;;35.97;27.96;101223.32;1280854;109;21185;-86
2022/07/30 07:14:00;;;;;;;11.55;2.05;;;;;;;36.39;26.75;101225.59;1286549;110;21298;-85
2022/07/30 07:18:54;;;;;;;13.43;1.90;;;;;;;36.81;25.18;101223.37;1269403;113;21362;-88
2022/07/30 07:21:21;;;;;;;5.30;2.10;;;;;;;36.47;25.62;101217.05;1273900;111;21601;-87
2022/07/30 07:23:48;;;;;;;37.63;3.58;;;;;;;36.38;25.09;101216.17;1286292;111;21082;-87
2022/07/30 07:26:15;;;;;;;4.33;1.67;;;;;;;36.08;25.86;101217.79;1291686;110;21148;-89
2022/07/30 07:28:42;;;;;;;4.42;2.58;;;;;;;36.01;25.66;101211.46;1359884;104;21058;-89
2022/07/30 07:31:09;;;;;;;7.20;1.40;;;;;;;36.08;25.80;101214.98;1353917;106;22034;-87
2022/07/30 07:33:36;;;;;;;21.90;1.95;;;;;;;36.14;25.74;101211.89;1370178;104;21383;-85
2022/07/30 07:36:03;;;;;;;7.83;1.70;;;;;;;36.25;25.71;101208.16;1353941;106;21579;-91
2022/07/30 07:38:29;;;;;;;4.58;1.80;;;;;;;35.88;24.48;101218.22;1369829;104;21856;-89
2022/07/30 07:40:56;;;;;;;7.67;1.60;;;;;;;35.56;24.79;101214.38;1353945;104;21219;-85
2022/07/30 07:43:24;;;;;;;2.25;1.50;;;;;;;35.78;25.79;101210.13;1378224;103;21336;-85
2022/07/30 07:45:50;;;;;;;4.25;1.52;;;;;;;36.34;25.39;101223.25;1327988;108;21247;-87
2022/07/30 07:48:19;;;;;;;3.12;1.50;;;;;;;36.71;24.72;101213.70;1328083;108;21272;-86
2022/07/30 07:50:48;;;;;;;4.65;1.60;;;;;;;36.42;25.41;101215.53;1332064;107;21102;-86
2022/07/30 07:53:13;;;;;;;4.33;1.52;;;;;;;36.75;24.76;101209.63;1353979;105;21180;-85
2022/07/30 07:55:41;;;;;;;4.80;1.80;;;;;;;36.90;25.00;101211.59;1354244;104;21203;-86
2022/07/30 07:58:10;;;;;;;2.40;1.75;;;;;;;36.95;23.79;101220.16;1353159;105;22088;-85
2022/07/30 08:00:37;;;;;;;20.48;2.25;;;;;;;36.75;24.35;101215.25;1342324;105;21631;-89
2022/07/30 08:03:05;;;;;;;2.65;1.75;;;;;;;36.96;23.99;101215.50;1338431;107;21190;-87
2022/07/30 08:05:31;;;;;;;10.80;2.10;;;;;;;36.70;24.19;101218.53;1337224;107;21577;-87
2022/07/30 08:07:58;;;;;;;7.97;1.98;;;;;;;36.54;24.39;101210.77;1323934;107;21156;-88
2022/07/30 08:10:26;;;;;;;2.80;1.70;;;;;;;36.61;24.87;101214.85;1299290;110;21881;-88
2022/07/30 08:12:52;;;;;;;7.40;1.87;;;;;;;36.67;24.83;101212.98;1280126;112;21620;-87
2022/07/30 08:15:19;;;;;;;5.00;1.72;;;;;;;36.81;23.85;101215.56;1308245;107;21576;-86
2022/07/30 08:17:46;;;;;;;8.78;2.00;;;;;;;36.37;25.16;101214.59;1312620;109;21260;-88
2022/07/30 08:20:15;;;;;;;4.58;1.52;;;;;;;36.49;24.47;101215.41;1321900;108;21183;-88
2022/07/30 08:22:42;;;;;;;5.08;1.40;;;;;;;36.35;24.62;101212.81;1321793;108;21383;-90
2022/07/30 08:25:15;;;;;;;9.45;1.92;;;;;;;36.57;24.69;101209.91;1321763;108;21606;-88
2022/07/30 08:27:51;;;;;;;2.72;1.80;;;;;;;36.49;24.77;101201.38;1340407;107;21663;-92
2022/07/30 08:30:17;;;;;;;4.58;1.50;;;;;;;36.60;24.86;101182.37;1340452;107;21215;-88
2022/07/30 08:32:43;;;;;;;5.65;1.52;;;;;;;37.27;25.25;101197.14;1340883;107;21122;-88
2022/07/30 08:35:11;;;;;;;5.97;1.67;;;;;;;37.44;24.59;101192.38;1340789;107;21205;-87
2022/07/30 08:37:39;;;;;;;3.87;1.80;;;;;;;37.59;24.74;101196.52;1304044;108;21189;-86
2022/07/30 08:40:08;;;;;;;3.75;1.60;;;;;;;37.64;24.15;101198.84;1303941;110;21119;-87
2022/07/30 08:42:37;;;;;;;5.60;1.72;;;;;;;37.34;24.21;101183.55;1267698;113;21183;-88
2022/07/30 08:45:05;;;;;;;7.05;3.50;;;;;;;37.59;24.14;101188.09;1248924;114;21221;-87
2022/07/30 08:47:34;;;;;;;8.83;3.08;;;;;;;37.11;24.02;101166.10;1256192;113;21286;-87
2022/07/30 08:50:04;;;;;;;6.50;3.10;;;;;;;37.11;24.02;101166.10;1277728;111;21259;-88
2022/07/30 08:52:36;;;;;;;9.65;2.77;;;;;;;37.78;23.89;101185.72;1278040;112;21158;-88
2022/07/30 08:55:07;;;;;;;;;;;;;;;37.61;23.02;101179.23;1286654;111;21220;-88
2022/07/30 08:57:34;;;;;;;3.45;2.77;;;;;;;37.41;23.14;101176.37;1308860;109;20529;-88
2022/07/30 09:00:08;;;;;;;6.35;3.33;;;;;;;37.35;23.04;101180.30;1319148;107;21202;-88
2022/07/30 09:02:33;;;;;;;6.53;4.10;;;;;;;37.33;23.63;101183.34;1329287;106;21256;-91
2022/07/30 09:05:00;;;;;;;7.72;3.95;;;;;;;37.03;23.91;101162.03;1331255;107;21166;-88
2022/07/30 09:07:26;;;;;;;8.18;4.03;;;;;;;36.95;23.98;101170.98;1331087;107;21235;-88
2022/07/30 09:09:53;;;;;;;4.58;3.45;;;;;;;37.14;24.35;101167.44;1317135;107;21172;-88
2022/07/30 09:12:41;;;;;;;16.75;4.42;;;;;;;37.34;23.78;101162.46;1303579;110;22272;-91
2022/07/30 09:15:14;;;;;;;9.03;4.87;;;;;;;37.45;23.29;101168.67;1303317;110;21677;-86
2022/07/30 09:17:54;;;;;;;8.48;3.52;;;;;;;36.91;23.55;101173.83;1303330;110;21183;-88
2022/07/30 09:20:25;;;;;;;4.92;3.65;;;;;;;36.74;24.17;101168.72;1296209;110;21181;-87
2022/07/30 09:22:57;;;;;;;8.85;3.25;;;;;;;36.81;23.89;101160.16;1295890;110;21693;-88
2022/07/30 09:25:44;;;;;;;5.70;3.17;;;;;;;36.83;24.04;101168.17;1306472;107;21246;-87
2022/07/30 09:28:12;;;;;;;5.08;2.67;;;;;;;36.12;24.21;101161.61;1348594;106;21187;-87
2022/07/30 09:30:52;;;;;;;15.25;3.05;;;;;;;35.65;24.21;101155.20;1348529;106;21137;-88
2022/07/30 09:33:38;;;;;;;4.70;2.15;;;;;;;35.34;25.31;101157.12;1329076;106;21680;-91
2022/07/30 09:36:10;;;;;;;4.37;1.85;;;;;;;35.65;25.47;101158.58;1310378;109;21762;-87
2022/07/30 09:38:50;;;;;;;;;;;;;;;35.78;25.14;101158.23;1312456;109;21610;-88
2022/07/30 09:41:24;;;;;;;3.55;1.30;;;;;;;36.19;24.68;101169.16;1311123;107;20138;-88
2022/07/30 09:43:51;;;;;;;7.62;1.90;;;;;;;36.45;24.73;101159.93;1314880;106;21259;-89
2022/07/30 09:46:17;;;;;;;5.50;1.77;;;;;;;36.47;24.91;101160.89;1312805;107;21229;-88
2022/07/30 09:48:47;;;;;;;12.47;1.80;;;;;;;36.28;25.05;101166.61;1298768;107;21214;-89
2022/07/30 09:51:13;;;;;;;6.70;1.75;;;;;;;35.73;24.40;101174.73;1312637;107;21230;-86
2022/07/30 09:53:58;;;;;;;3.87;1.57;;;;;;;35.18;24.83;101173.69;1318792;105;21163;-87
2022/07/30 09:56:27;;;;;;;5.15;1.95;;;;;;;34.81;24.95;101170.40;1342941;105;21805;-85
2022/07/30 09:58:53;;;;;;;3.22;1.62;;;;;;;34.61;25.35;101166.56;1399875;101;21167;-86
2022/07/30 10:01:20;;;;;;;6.67;1.32;;;;;;;34.45;26.09;101161.45;1400587;101;21592;-88
2022/07/30 10:03:48;;;;;;;11.30;2.17;;;;;;;34.62;26.23;101165.95;1402370;100;21217;-86
2022/07/30 10:06:14;;;;;;;4.72;1.77;;;;;;;34.48;26.37;101160.63;1411259;100;21505;-88
2022/07/30 10:08:48;;;;;;;9.58;1.52;;;;;;;34.31;26.56;101170.73;1427427;99;21031;-85
2022/07/30 10:11:23;;;;;;;5.47;1.72;;;;;;;33.86;26.50;101171.95;1427080;99;21277;-87
2022/07/30 10:13:56;;;;;;;3.30;1.77;;;;;;;33.77;27.12;101164.61;1427247;99;21111;-86
2022/07/30 10:16:27;;;;;;;3.80;1.60;;;;;;;33.93;26.93;101162.12;1398890;102;21230;-87
2022/07/30 10:18:56;;;;;;;8.30;1.50;;;;;;;33.73;26.69;101165.20;1398935;102;21151;-87
2022/07/30 10:21:21;;;;;;;2.90;1.40;;;;;;;33.22;26.93;101160.94;1398847;102;21169;-88
2022/07/30 10:23:51;;;;;;;5.65;1.80;;;;;;;33.32;27.98;101162.10;1399148;102;21737;-87
2022/07/30 10:26:19;;;;;;;2.25;1.45;;;;;;;33.06;27.28;101161.34;1399164;102;21624;-86
2022/07/30 10:28:46;;;;;;;7.85;1.40;;;;;;;32.72;27.72;101165.92;1399278;102;22214;-87
2022/07/30 10:31:14;;;;;;;4.03;1.62;;;;;;;32.85;27.95;101168.31;1391989;102;21564;-87
2022/07/30 10:33:44;;;;;;;5.17;1.70;;;;;;;32.93;28.07;101161.53;1428126;100;21116;-86
2022/07/30 10:36:12;;;;;;;7.22;1.80;;;;;;;33.24;28.45;101156.55;1377667;104;21525;-86
2022/07/30 10:38:42;;;;;;;7.87;1.80;;;;;;;33.32;27.28;101149.53;1385940;103;21215;-88
2022/07/30 10:41:32;;;;;;;5.58;1.70;;;;;;;33.14;27.53;101162.92;1378011;104;21201;-86
2022/07/30 10:44:47;;;;;;;4.45;1.57;;;;;;;33.12;27.20;101163.13;1377938;103;21123;-87
2022/07/30 10:47:17;;;;;;;5.10;1.80;;;;;;;33.18;27.67;101158.73;1354898;104;21220;-86
2022/07/30 10:50:12;;;;;;;9.48;2.40;;;;;;;33.09;27.60;101162.53;1335347;107;21697;-86
2022/07/30 10:53:01;;;;;;;4.40;1.40;;;;;;;32.96;27.55;101159.34;1335382;107;21630;-86
2022/07/30 10:55:36;;;;;;;7.95;1.80;;;;;;;33.12;27.99;101162.55;1322249;107;21206;-87
2022/07/30 10:58:15;;;;;;;2.30;1.30;;;;;;;33.29;27.37;101155.92;1349054;106;21226;-86
2022/07/30 11:00:57;;;;;;;5.80;1.20;;;;;;;33.11;27.23;101155.35;1349261;106;21100;-87
2022/07/30 11:03:30;;;;;;;3.58;1.65;;;;;;;33.11;27.88;101161.55;1364985;103;21940;-85
2022/07/30 11:06:27;;;;;;;3.87;1.98;;;;;;;32.56;27.62;101161.31;1364752;104;21242;-85
2022/07/30 11:08:53;;;;;;;3.10;1.20;;;;;;;32.17;27.54;101148.66;1349659;106;21291;-86
2022/07/30 11:11:29;;;;;;;14.38;2.15;;;;;;;31.62;27.51;101146.83;1351389;104;21627;-91
2022/07/30 11:14:01;;;;;;;6.05;1.27;;;;;;;31.39;28.81;101148.52;1360627;104;21187;-86
2022/07/30 11:16:43;;;;;;;8.03;1.50;;;;;;;31.37;28.87;101155.86;1320884;108;21626;-84
2022/07/30 11:19:19;;;;;;;5.25;1.40;;;;;;;31.38;28.76;101154.66;1320604;107;21211;-84
2022/07/30 11:21:49;;;;;;;2.35;1.10;;;;;;;31.30;29.27;101153.02;1320322;107;21238;-84
2022/07/30 11:24:46;;;;;;;3.90;1.40;;;;;;;31.50;29.68;101147.96;1320520;108;21177;-84
2022/07/30 11:27:49;;;;;;;11.30;1.80;;;;;;;31.85;28.66;101146.53;1320784;108;21148;-86
2022/07/30 11:30:23;;;;;;;21.95;2.37;;;;;;;31.91;28.82;101144.99;1320859;108;21149;-85
2022/07/30 11:32:53;;;;;;;5.45;1.30;;;;;;;32.09;28.67;101150.05;1324913;105;21727;-87
2022/07/30 11:35:24;;;;;;;1.70;1.40;;;;;;;32.20;29.29;101152.84;1339301;106;21793;-86
2022/07/30 11:40:53;;;;;;;3.55;1.20;;;;;;;31.99;28.45;101148.02;1350219;106;21221;-87
2022/07/30 11:43:25;;;;;;;4.17;1.30;;;;;;;31.98;28.52;101149.22;1350260;106;21200;-84
2022/07/30 11:46:11;;;;;;;2.10;1.40;;;;;;;32.09;29.35;101140.86;1287335;111;21169;-86
2022/07/30 11:48:59;;;;;;;7.62;1.60;;;;;;;32.19;28.57;101139.31;1287304;111;22088;-85
2022/07/30 11:51:30;;;;;;;3.25;1.45;;;;;;;31.92;28.93;101138.84;1265249;113;21148;-86
2022/07/30 11:54:03;;;;;;;5.42;1.80;;;;;;;32.13;29.62;101135.51;1264078;110;21177;-85
2022/07/30 11:56:30;;;;;;;5.25;1.80;;;;;;;32.29;28.87;101138.52;1289072;109;21651;-87
2022/07/30 11:59:10;;;;;;;5.55;1.45;;;;;;;32.11;29.52;101130.91;1289098;111;21525;-87
2022/07/30 12:01:37;;;;;;;3.92;1.62;;;;;;;32.17;29.03;101134.72;1262615;112;21311;-85
2022/07/30 12:04:08;;;;;;;5.35;1.42;;;;;;;32.02;28.87;101142.25;1276999;112;21265;-85
2022/07/30 12:06:52;;;;;;;6.47;1.52;;;;;;;31.87;29.22;101137.19;1243471;114;21193;-87
2022/07/30 12:09:26;;;;;;;4.08;1.30;;;;;;;31.84;29.13;101132.41;1235045;116;21205;-86
2022/07/30 12:11:51;;;;;;;6.35;1.40;;;;;;;31.96;29.11;101129.28;1235314;114;21617;-86
2022/07/30 12:14:18;;;;;;;4.12;1.72;;;;;;;32.11;29.19;101122.55;1247294;114;21204;-86
2022/07/30 12:16:55;;;;;;;5.47;1.92;;;;;;;32.39;29.53;101123.81;1249962;114;21267;-85
2022/07/30 12:19:20;;;;;;;2.22;1.32;;;;;;;32.58;29.11;101123.44;1249945;113;21228;-86
2022/07/30 12:21:47;;;;;;;6.00;1.32;;;;;;;32.53;29.36;101121.06;1250030;114;21244;-85
2022/07/30 12:24:13;;;;;;;3.87;1.50;;;;;;;32.38;28.94;101114.42;1249798;114;21379;-85
2022/07/30 12:26:46;;;;;;;3.37;1.77;;;;;;;32.09;29.06;101111.01;1249612;114;21224;-86
2022/07/30 12:29:15;;;;;;;;;;;;;;;31.99;28.35;101114.55;1251766;114;21184;-86
2022/07/30 12:31:41;;;;;;;3.95;1.57;;;;;;;31.55;29.39;101115.55;1249933;114;20183;-85
2022/07/30 12:39:31;;;;;;;5.58;1.50;;;;;;;31.53;29.21;101110.95;1277042;112;21757;-87
2022/07/30 12:41:57;;;;;;;11.05;1.45;;;;;;;31.62;29.21;101114.78;1274545;109;21762;-84
2022/07/30 12:44:41;;;;;;;4.55;1.37;;;;;;;31.35;29.45;101107.30;1260149;113;21278;-85
2022/07/30 12:47:29;;;;;;;2.20;1.20;;;;;;;31.40;29.80;101109.72;1276578;111;21238;-84
2022/07/30 12:50:04;;;;;;;5.58;3.20;;;;;;;31.41;29.48;101107.95;1309110;108;21242;-85
2022/07/30 12:52:43;;;;;;;5.87;1.70;;;;;;;31.31;29.67;101100.89;1316602;104;21729;-86
2022/07/30 12:55:11;;;;;;;2.05;1.57;;;;;;;31.19;29.94;101097.23;1364532;105;21036;-84
2022/07/30 12:58:07;;;;;;;;;;;;;;;;;;;;;
2022/07/30 13:00:34;;;;;;;3.17;1.75;;;;;;;31.43;29.81;101107.54;1345203;106;21175;-87
2022/07/30 13:03:09;;;;;;;9.35;1.70;;;;;;;31.39;29.98;101106.14;1334953;105;21655;-87
2022/07/30 13:08:19;;;;;;;5.70;1.50;;;;;;;31.29;29.16;101090.72;1276851;111;21227;-85
2022/07/30 13:26:50;;;;;;;4.80;2.02;;;;;;;31.64;28.92;101074.19;1258381;111;21194;-84
2022/07/30 13:29:20;;;;;;;2.55;1.20;;;;;;;31.64;29.36;101067.82;1268734;111;21412;-83
2022/07/30 13:31:48;;;;;;;14.13;1.80;;;;;;;31.60;29.48;101067.81;1266909;111;21238;-84
2022/07/30 13:34:27;;;;;;;6.37;1.50;;;;;;;31.63;29.80;101062.84;1281837;110;21221;-86
2022/07/30 13:37:00;;;;;;;8.75;1.92;;;;;;;31.32;28.86;101060.09;1287535;110;21246;-87
2022/07/30 13:39:30;;;;;;;12.43;2.42;;;;;;;30.94;29.50;101060.91;1268816;111;21641;-85